Aeroporto :
LOGIN :

Iscrizione | Disclaimer

   EN    FR    IT 

 










Sommario :    VFR   VFR Marginale   IFR   IFR Intensivo   IFR Molto Intensivo
Visibilità : 
Base nubi : 
>= 8 km
>= 3000ft
5 / 8 km
1000 / 3000 ft
1500m / 5 km
500 / 1000 ft
800 / 1500m
200 / 500 ft
< 800m
< 200 ft
Simboli :   Temporali  Nebbia  Neve Forte  Precipitazioni Forti  Vento > 20 kt
SIGMETs :   Varie  Temporali  Ghiacco  Turbolenza  Onda orograficha  Ceneri Vulcaniche







- Altitudine del aeroporto : 510 ft


LJCE - Cerklje

ULTIMO METAR :
  • 210900Z 08005KT 030V130 CAVOK 09/M02 Q1037 RMK BLU

METARs OBSOLETI :
  • 210830Z 10005KT 060V140 CAVOK 08/M02 Q1037 R09/CLRD// RMK BLU
  • 210730Z VRB01KT CAVOK 04/M02 Q1037 R09/CLRD// RMK BLU
  • 210700Z VRB01KT CAVOK 02/M02 Q1037 RMK BLU
  • 210630Z 00000KT CAVOK 00/M02 Q1036 RMK BLU

TAF TAF LJCE
Valido dal 21 a 09 ore il 21 a 18 ore UTC


210800Z 2109/2118 08005KT CAVOK
Nessun NOTAM noto per questo aeroporto.
1 SIGMET conosciuto per la FIR Ljubljana (LJLA) :
 
Turbolenza severa
LJLA SIGMET 2 VALID 210800/211100 LJLJ
LJLA LJUBLJANA FIR SEV TURB FCST WI N4529 E01322 - N4554 E014 - N4533 E01434 - N4524 E01421 - N4524 E01333 - N4529 E01322 SFC/6000FT STNR WKN=



MetMap, La meteo Aeronautica in un colpo d'occhio ! - Copyright ORBIFLY Dicembre 2007 - Disclaimer

ORBIFLY MET'MAP TEAM :

Programmazione e sviluppo : Alexandra Zaïnal
Concezione e sviluppo : Baudouin d'Aumeries
Co-Programmazione e sviluppo : Marc-Olivier Méhu
Supporto tecnico e logistico : Manuel Goepfert
Aiuto per la traduzione : Arnaldo La Scala

Contatto : metmap@orbifly.com




FONTI E CREDITI :

   NOAA